Time;durP1;ratioP1;P1;durP2;ratioP2;P2;SDS_P1;SDS_P2;PMS_P1;PMS_P2;Temp;Humidity;BMP_temperature;BMP_pressure;BME280_temperature;BME280_humidity;BME280_pressure;Samples;Min_cycle;Max_cycle;Signal;HPM_P1;HPM_P2
2022/11/23 00:01:38;;;;;;;;;;;7.70;99.90;;;;;;5080138;28;19928;-70
2022/11/23 00:04:21;;;;;;;;;;;7.70;99.90;;;;;;5101564;28;20007;-70
2022/11/23 00:07:03;;;;;;;;;;;7.70;99.90;;;;;;5102696;28;19915;-70
2022/11/23 00:09:28;;;;;;;;;;;7.70;99.90;;;;;;5126968;27;19922;-70
2022/11/23 00:11:54;;;;;;;;;;;7.70;99.90;;;;;;5105913;28;19916;-71
2022/11/23 00:14:20;;;;;;;;;;;7.70;99.90;;;;;;5097217;28;19916;-71
2022/11/23 00:16:45;;;;;;;;;;;7.70;99.90;;;;;;5081758;28;20258;-71
2022/11/23 00:19:11;;;;;;;;;;;7.80;99.90;;;;;;5098596;28;19912;-71
2022/11/23 00:22:12;;;;;;;;;;;7.70;99.90;;;;;;5082179;28;20005;-71
2022/11/23 00:24:38;;;;;;;;;;;7.70;99.90;;;;;;5045902;28;19912;-71
2022/11/23 00:27:03;;;;;;;;;;;7.80;99.90;;;;;;5107988;27;20779;-69
2022/11/23 00:29:29;;;;;;;;;;;7.80;99.90;;;;;;5085883;28;19915;-70
2022/11/23 00:31:55;;;;;;;;;;;7.90;99.90;;;;;;5087623;28;19935;-71
2022/11/23 00:34:20;;;;;;;;;;;7.90;99.90;;;;;;5098890;28;20005;-71
2022/11/23 00:36:46;;;;;;;;;;;7.90;99.90;;;;;;5112729;28;19957;-71
2022/11/23 00:39:12;;;;;;;;;;;7.90;99.90;;;;;;5101752;28;19915;-71
2022/11/23 00:41:38;;;;;;;;;;;7.90;99.90;;;;;;5120077;28;19979;-71
2022/11/23 00:44:03;;;;;;;;;;;8.00;99.90;;;;;;5115924;28;19974;-71
2022/11/23 00:46:29;;;;;;;;;;;8.00;99.90;;;;;;5105590;28;19923;-71
2022/11/23 00:48:56;;;;;;;;;;;8.00;99.90;;;;;;5100116;28;20004;-71
2022/11/23 00:51:26;;;;;;;;;;;8.00;99.90;;;;;;5101720;28;19920;-71
2022/11/23 00:53:52;;;;;;;;;;;8.10;99.90;;;;;;5099161;28;19947;-71
2022/11/23 00:56:18;;;;;;;;;;;8.10;99.90;;;;;;5084522;28;19911;-71
2022/11/23 00:58:48;;;;;;;;;;;8.10;99.90;;;;;;5108893;28;19913;-71
2022/11/23 01:01:14;;;;;;;;;;;8.10;99.90;;;;;;5097089;28;19931;-70
2022/11/23 01:03:41;;;;;;;;;;;8.20;99.90;;;;;;5093764;28;19952;-71
2022/11/23 01:06:08;;;;;;;;;;;8.10;99.90;;;;;;5132231;28;19987;-71
2022/11/23 01:08:34;;;;;;;;;;;8.20;99.90;;;;;;5115614;28;19900;-71
2022/11/23 01:11:01;;;;;;;;;;;8.20;99.90;;;;;;5097270;28;19922;-71
2022/11/23 01:13:27;;;;;;;;;;;8.20;99.90;;;;;;5096980;28;19946;-71
2022/11/23 01:15:53;;;;;;;;;;;8.30;99.90;;;;;;5103734;28;19923;-71
2022/11/23 01:18:19;;;;;;;;;;;8.30;99.90;;;;;;5121023;28;19912;-71
2022/11/23 01:20:44;;;;;;;;;;;8.30;99.90;;;;;;5117584;28;19908;-71
2022/11/23 01:23:10;;;;;;;;;;;8.30;99.90;;;;;;5097070;28;19936;-71
2022/11/23 01:25:36;;;;;;;;;;;8.40;99.90;;;;;;5110145;28;19968;-71
2022/11/23 01:28:01;;;;;;;;;;;8.40;99.90;;;;;;5099912;28;20001;-71
2022/11/23 01:30:27;;;;;;;;;;;8.40;99.90;;;;;;5121225;28;19908;-71
2022/11/23 01:32:52;;;;;;;;;;;8.40;99.90;;;;;;5121066;28;19931;-71
2022/11/23 01:35:18;;;;;;;;;;;8.40;99.90;;;;;;5106860;28;20380;-71
2022/11/23 01:37:44;;;;;;;;;;;8.50;99.90;;;;;;5105448;28;19955;-71
2022/11/23 01:40:10;;;;;;;;;;;8.50;99.90;;;;;;5101065;28;19908;-71
2022/11/23 01:42:51;;;;;;;;;;;8.50;99.90;;;;;;5099589;28;19912;-71
2022/11/23 01:45:32;;;;;;;;;;;8.60;99.90;;;;;;5098107;28;19953;-71
2022/11/23 01:47:57;;;;;;;;;;;8.50;99.90;;;;;;5109499;28;20010;-71
2022/11/23 01:50:23;;;;;;;;;;;8.60;99.90;;;;;;5094211;28;20332;-71
2022/11/23 01:52:49;;;;;;;;;;;8.60;99.90;;;;;;5102690;28;19929;-71
2022/11/23 01:55:15;;;;;;;;;;;8.50;99.90;;;;;;5121230;28;19975;-70
2022/11/23 01:57:43;;;;;;;;;;;8.60;99.90;;;;;;5118693;28;19915;-70
2022/11/23 02:00:09;;;;;;;;;;;8.60;99.90;;;;;;5094161;28;20013;-71
2022/11/23 02:02:36;;;;;;;;;;;8.60;99.90;;;;;;5101059;28;20443;-71
2022/11/23 02:05:02;;;;;;;;;;;8.60;99.90;;;;;;5101075;28;19916;-71
2022/11/23 02:07:29;;;;;;;;;;;8.60;99.90;;;;;;5108146;27;19923;-71
2022/11/23 02:09:54;;;;;;;;;;;8.70;99.90;;;;;;5109978;28;20342;-71
2022/11/23 02:12:20;;;;;;;;;;;8.70;99.90;;;;;;5122230;28;19934;-71
2022/11/23 02:14:46;;;;;;;;;;;8.70;99.90;;;;;;5113876;28;19909;-71
2022/11/23 02:17:12;;;;;;;;;;;8.70;99.90;;;;;;5102175;28;19999;-71
2022/11/23 02:19:41;;;;;;;;;;;8.70;99.90;;;;;;5100452;28;19908;-71
2022/11/23 02:22:11;;;;;;;;;;;8.70;99.90;;;;;;5100675;28;19962;-71
2022/11/23 02:24:41;;;;;;;;;;;8.70;99.90;;;;;;5098940;28;20373;-71
2022/11/23 02:27:07;;;;;;;;;;;8.80;99.90;;;;;;5090523;28;19919;-71
2022/11/23 02:29:33;;;;;;;;;;;8.90;99.90;;;;;;5100245;28;20300;-71
2022/11/23 02:31:59;;;;;;;;;;;8.80;99.90;;;;;;5099992;28;19955;-71
2022/11/23 02:34:25;;;;;;;;;;;8.80;99.90;;;;;;5088621;28;19916;-71
2022/11/23 02:36:51;;;;;;;;;;;8.80;99.90;;;;;;5099649;28;19916;-70
2022/11/23 02:39:37;;;;;;;;;;;8.80;99.90;;;;;;5099923;28;19916;-70
2022/11/23 02:42:06;;;;;;;;;;;8.80;99.90;;;;;;5115965;28;19915;-71
2022/11/23 02:44:50;;;;;;;;;;;8.80;99.90;;;;;;5098948;28;19920;-71
2022/11/23 02:47:16;;;;;;;;;;;8.80;99.90;;;;;;5092544;28;20281;-71
2022/11/23 02:49:44;;;;;;;;;;;8.80;99.90;;;;;;5098582;28;19916;-71
2022/11/23 02:52:10;;;;;;;;;;;8.80;99.90;;;;;;5099819;28;19951;-71
2022/11/23 02:54:36;;;;;;;;;;;8.80;99.90;;;;;;5100280;28;19912;-71
2022/11/23 02:57:02;;;;;;;;;;;8.80;99.90;;;;;;5092174;28;20360;-71
2022/11/23 02:59:31;;;;;;;;;;;8.80;99.90;;;;;;5138194;27;19912;-70
2022/11/23 03:02:00;;;;;;;;;;;8.80;99.90;;;;;;5122264;28;19954;-70
2022/11/23 03:04:26;;;;;;;;;;;8.90;99.90;;;;;;5095928;28;19912;-71
2022/11/23 03:06:51;;;;;;;;;;;8.90;99.90;;;;;;5127904;27;19909;-71
2022/11/23 03:09:17;;;;;;;;;;;8.90;99.90;;;;;;5101014;28;19915;-71
2022/11/23 03:11:43;;;;;;;;;;;8.90;99.90;;;;;;5100034;28;19912;-71
2022/11/23 03:14:08;;;;;;;;;;;9.00;99.90;;;;;;5080810;28;19916;-71
2022/11/23 03:16:34;;;;;;;;;;;9.00;99.90;;;;;;5111376;28;19912;-71
2022/11/23 03:19:00;;;;;;;;;;;9.00;99.90;;;;;;5120080;28;19915;-71
2022/11/23 03:21:26;;;;;;;;;;;9.00;99.90;;;;;;5102105;28;20369;-71
2022/11/23 03:23:52;;;;;;;;;;;8.90;99.90;;;;;;5108920;28;20277;-71
2022/11/23 03:26:17;;;;;;;;;;;8.90;99.90;;;;;;5100382;28;19908;-71
2022/11/23 03:28:43;;;;;;;;;;;8.90;99.90;;;;;;5098897;28;19999;-72
2022/11/23 03:31:09;;;;;;;;;;;8.90;99.90;;;;;;5081268;28;19963;-72
2022/11/23 03:33:35;;;;;;;;;;;9.00;99.90;;;;;;5099272;28;19930;-72
2022/11/23 03:36:00;;;;;;;;;;;9.00;99.90;;;;;;5116390;28;20070;-72
2022/11/23 03:38:26;;;;;;;;;;;9.00;99.90;;;;;;5109079;28;20365;-72
2022/11/23 03:40:52;;;;;;;;;;;9.10;99.90;;;;;;5103289;28;20381;-72
2022/11/23 03:43:18;;;;;;;;;;;9.10;99.90;;;;;;5100489;28;19916;-71
2022/11/23 03:45:44;;;;;;;;;;;9.10;99.90;;;;;;5106157;28;19919;-72
2022/11/23 03:48:10;;;;;;;;;;;9.10;99.90;;;;;;5114823;28;20476;-71
2022/11/23 03:50:35;;;;;;;;;;;9.10;99.90;;;;;;5098085;28;20014;-71
2022/11/23 03:53:01;;;;;;;;;;;9.10;99.90;;;;;;5099041;28;19912;-72
2022/11/23 03:55:27;;;;;;;;;;;9.10;99.90;;;;;;5106662;28;19916;-72
2022/11/23 03:57:54;;;;;;;;;;;9.10;99.90;;;;;;5097527;28;19912;-73
2022/11/23 04:00:20;;;;;;;;;;;9.10;99.90;;;;;;5078907;28;19970;-72
2022/11/23 04:02:46;;;;;;;;;;;9.10;99.90;;;;;;5098075;28;19912;-72
2022/11/23 04:05:11;;;;;;;;;;;9.20;99.90;;;;;;5125278;27;19912;-72
2022/11/23 04:07:37;;;;;;;;;;;9.20;99.90;;;;;;5120465;28;19908;-71
2022/11/23 04:10:03;;;;;;;;;;;9.20;99.90;;;;;;5094819;28;20421;-72
2022/11/23 04:12:29;;;;;;;;;;;9.20;99.90;;;;;;5123018;27;19979;-71
2022/11/23 04:14:54;;;;;;;;;;;9.20;99.90;;;;;;5099230;28;19972;-72
2022/11/23 04:17:20;;;;;;;;;;;9.20;99.90;;;;;;5104438;28;20291;-71
2022/11/23 04:19:46;;;;;;;;;;;9.20;99.90;;;;;;5120832;28;19919;-72
2022/11/23 04:22:12;;;;;;;;;;;9.20;99.90;;;;;;5119507;28;19915;-72
2022/11/23 04:24:37;;;;;;;;;;;9.20;99.90;;;;;;5084594;28;19907;-72
2022/11/23 04:27:03;;;;;;;;;;;9.20;99.90;;;;;;5101092;28;19915;-71
2022/11/23 04:29:29;;;;;;;;;;;9.20;99.90;;;;;;5100315;28;19912;-72
2022/11/23 04:31:54;;;;;;;;;;;9.10;99.90;;;;;;5099634;28;19959;-71
2022/11/23 04:34:20;;;;;;;;;;;9.10;99.90;;;;;;5103000;28;19955;-72
2022/11/23 04:36:46;;;;;;;;;;;9.10;99.90;;;;;;5102772;28;19953;-72
2022/11/23 04:39:12;;;;;;;;;;;9.10;99.90;;;;;;5100110;28;19998;-71
2022/11/23 04:41:38;;;;;;;;;;;9.10;99.90;;;;;;5098967;28;19944;-72
2022/11/23 04:44:04;;;;;;;;;;;9.10;99.90;;;;;;5105397;28;19915;-71
2022/11/23 04:46:29;;;;;;;;;;;9.10;99.90;;;;;;5107098;28;19916;-71
2022/11/23 04:48:55;;;;;;;;;;;9.10;99.90;;;;;;5098562;28;19915;-71
2022/11/23 04:51:21;;;;;;;;;;;9.10;99.90;;;;;;5097760;28;19919;-72
2022/11/23 04:53:47;;;;;;;;;;;9.00;99.90;;;;;;5098174;28;19912;-72
2022/11/23 04:56:13;;;;;;;;;;;9.10;99.90;;;;;;5107967;28;19974;-71
2022/11/23 04:58:39;;;;;;;;;;;9.10;99.90;;;;;;5099749;28;19912;-71
2022/11/23 05:01:05;;;;;;;;;;;9.00;99.90;;;;;;5079857;28;19935;-71
2022/11/23 05:03:33;;;;;;;;;;;9.00;99.90;;;;;;5097444;28;19915;-71
2022/11/23 05:06:00;;;;;;;;;;;9.00;99.90;;;;;;5119283;28;19965;-71
2022/11/23 05:08:25;;;;;;;;;;;9.00;99.90;;;;;;5102382;28;19924;-71
2022/11/23 05:10:51;;;;;;;;;;;9.00;99.90;;;;;;5098087;28;20442;-71
2022/11/23 05:13:17;;;;;;;;;;;8.90;99.90;;;;;;5097886;28;19908;-71
2022/11/23 05:15:42;;;;;;;;;;;8.90;99.90;;;;;;5097595;28;20289;-71
2022/11/23 05:18:09;;;;;;;;;;;8.90;99.90;;;;;;5118832;28;19954;-71
2022/11/23 05:20:35;;;;;;;;;;;8.90;99.90;;;;;;5096436;28;19912;-71
2022/11/23 05:23:01;;;;;;;;;;;8.90;99.90;;;;;;5100966;28;19913;-72
2022/11/23 05:25:27;;;;;;;;;;;8.90;99.90;;;;;;5108824;28;19908;-72
2022/11/23 05:27:53;;;;;;;;;;;8.90;99.90;;;;;;5098503;28;20362;-72
2022/11/23 05:30:19;;;;;;;;;;;9.00;99.90;;;;;;5111782;28;19923;-71
2022/11/23 05:32:45;;;;;;;;;;;9.00;99.90;;;;;;5105962;28;19915;-71
2022/11/23 05:35:10;;;;;;;;;;;8.90;99.90;;;;;;5120120;28;19908;-71
2022/11/23 05:37:36;;;;;;;;;;;8.90;99.90;;;;;;5119784;28;19965;-71
2022/11/23 05:40:02;;;;;;;;;;;8.90;99.90;;;;;;5097878;28;20293;-71
2022/11/23 05:42:28;;;;;;;;;;;9.00;99.90;;;;;;5101719;28;19951;-71
2022/11/23 05:44:54;;;;;;;;;;;9.00;99.90;;;;;;5107641;28;19919;-72
2022/11/23 05:47:20;;;;;;;;;;;9.00;99.90;;;;;;5111474;28;20466;-71
2022/11/23 05:49:49;;;;;;;;;;;8.90;99.90;;;;;;5116401;28;19912;-71
2022/11/23 05:52:15;;;;;;;;;;;8.90;99.90;;;;;;5087357;28;19916;-71
2022/11/23 05:54:41;;;;;;;;;;;8.90;99.90;;;;;;5098255;28;19908;-71
2022/11/23 05:57:07;;;;;;;;;;;8.90;99.90;;;;;;5118322;28;19907;-72
2022/11/23 05:59:33;;;;;;;;;;;8.90;99.90;;;;;;5100008;28;19950;-71
2022/11/23 06:01:58;;;;;;;;;;;8.80;99.90;;;;;;5121004;28;20350;-71
2022/11/23 06:04:24;;;;;;;;;;;8.80;99.90;;;;;;5098479;28;19930;-71
2022/11/23 06:06:50;;;;;;;;;;;8.80;99.90;;;;;;5097649;28;20293;-72
2022/11/23 06:09:16;;;;;;;;;;;8.80;99.90;;;;;;5099637;28;19912;-72
2022/11/23 06:11:43;;;;;;;;;;;8.80;99.90;;;;;;5102839;28;20264;-71
2022/11/23 06:14:09;;;;;;;;;;;8.80;99.90;;;;;;5100710;28;19982;-71
2022/11/23 06:16:35;;;;;;;;;;;8.70;99.90;;;;;;5101800;28;19912;-71
2022/11/23 06:19:00;;;;;;;;;;;8.70;99.90;;;;;;5102986;28;19913;-71
2022/11/23 06:21:26;;;;;;;;;;;8.70;99.90;;;;;;5114915;28;20475;-71
2022/11/23 06:23:52;;;;;;;;;;;8.80;99.90;;;;;;5105645;28;19967;-71
2022/11/23 06:26:18;;;;;;;;;;;8.80;99.90;;;;;;5102947;28;20016;-71
2022/11/23 06:28:43;;;;;;;;;;;8.80;99.90;;;;;;5122311;28;20001;-71
2022/11/23 06:31:18;;;;;;;;;;;8.80;99.90;;;;;;5119938;28;19923;-71
2022/11/23 06:33:44;;;;;;;;;;;8.90;99.90;;;;;;5085257;28;19926;-71
2022/11/23 06:36:10;;;;;;;;;;;8.80;99.90;;;;;;5110475;28;19908;-71
2022/11/23 06:38:36;;;;;;;;;;;8.90;99.90;;;;;;5102622;28;19922;-71
2022/11/23 06:41:02;;;;;;;;;;;8.90;99.90;;;;;;5083700;28;19985;-71
2022/11/23 06:43:28;;;;;;;;;;;8.90;99.90;;;;;;5122166;27;19912;-71
2022/11/23 06:45:54;;;;;;;;;;;8.90;99.90;;;;;;5112752;28;19952;-71
2022/11/23 06:48:20;;;;;;;;;;;9.00;99.90;;;;;;5101766;28;19967;-71
2022/11/23 06:50:46;;;;;;;;;;;8.90;99.90;;;;;;5098944;28;19916;-71
2022/11/23 06:53:12;;;;;;;;;;;9.00;99.90;;;;;;5103120;28;19938;-71
2022/11/23 06:55:38;;;;;;;;;;;9.00;99.90;;;;;;5101858;28;19912;-71
2022/11/23 06:58:04;;;;;;;;;;;9.00;99.90;;;;;;5116173;28;20281;-71
2022/11/23 07:00:30;;;;;;;;;;;9.10;99.90;;;;;;5108396;28;19920;-71
2022/11/23 07:02:56;;;;;;;;;;;9.10;99.90;;;;;;5101765;28;19916;-71
2022/11/23 07:05:22;;;;;;;;;;;9.10;99.90;;;;;;5081399;28;20010;-72
2022/11/23 07:07:48;;;;;;;;;;;9.10;99.90;;;;;;5100177;28;19953;-71
2022/11/23 07:10:14;;;;;;;;;;;9.20;99.90;;;;;;5105105;28;19912;-71
2022/11/23 07:12:40;;;;;;;;;;;9.30;99.90;;;;;;5110891;28;19955;-71
2022/11/23 07:15:06;;;;;;;;;;;9.30;99.90;;;;;;5096494;28;19911;-72
2022/11/23 07:17:31;;;;;;;;;;;9.40;99.90;;;;;;5098019;28;20438;-71
2022/11/23 07:19:57;;;;;;;;;;;9.30;99.90;;;;;;5090056;28;19987;-71
2022/11/23 07:22:23;;;;;;;;;;;9.30;99.90;;;;;;5110475;28;19912;-71
2022/11/23 07:24:48;;;;;;;;;;;9.20;99.90;;;;;;5075278;28;19915;-71
2022/11/23 07:27:19;;;;;;;;;;;9.20;99.90;;;;;;5101985;28;20017;-71
2022/11/23 07:29:45;;;;;;;;;;;9.20;99.90;;;;;;5085024;28;19924;-71
2022/11/23 07:32:10;;;;;;;;;;;9.30;99.90;;;;;;5094259;28;20409;-71
2022/11/23 07:34:36;;;;;;;;;;;9.30;99.90;;;;;;5096313;28;19916;-72
2022/11/23 07:37:03;;;;;;;;;;;9.30;99.90;;;;;;5091465;28;19990;-71
2022/11/23 07:39:29;;;;;;;;;;;9.30;99.90;;;;;;5091472;28;19956;-71
2022/11/23 07:41:55;;;;;;;;;;;9.40;99.90;;;;;;5077979;28;21893;-71
2022/11/23 07:44:21;;;;;;;;;;;9.40;99.90;;;;;;5095768;28;19919;-71
2022/11/23 07:46:47;;;;;;;;;;;9.40;99.90;;;;;;5074479;28;19916;-71
2022/11/23 07:49:12;;;;;;;;;;;9.50;99.90;;;;;;5096921;28;19920;-68
2022/11/23 07:51:38;;;;;;;;;;;9.60;99.90;;;;;;5106096;28;19919;-69
2022/11/23 07:54:04;;;;;;;;;;;9.50;99.90;;;;;;5087451;28;19991;-69
2022/11/23 07:56:29;;;;;;;;;;;9.40;99.90;;;;;;5106148;28;20404;-69
2022/11/23 07:58:55;;;;;;;;;;;9.50;99.90;;;;;;5076698;28;20453;-69
2022/11/23 08:01:21;;;;;;;;;;;9.50;99.90;;;;;;5093900;28;19908;-69
2022/11/23 08:03:47;;;;;;;;;;;9.50;99.90;;;;;;5096131;28;19913;-70
2022/11/23 08:06:13;;;;;;;;;;;9.70;99.90;;;;;;5094214;28;19954;-68
2022/11/23 08:08:39;;;;;;;;;;;9.90;99.90;;;;;;5104426;28;20337;-70
2022/11/23 08:11:05;;;;;;;;;;;9.90;99.90;;;;;;5077664;28;19924;-69
2022/11/23 08:13:33;;;;;;;;;;;9.90;99.90;;;;;;5098324;28;19911;-69
2022/11/23 08:15:59;;;;;;;;;;;9.80;99.90;;;;;;5091409;28;20392;-69
2022/11/23 08:18:25;;;;;;;;;;;9.90;99.90;;;;;;5097274;28;20369;-69
2022/11/23 08:20:51;;;;;;;;;;;9.90;99.90;;;;;;5097890;28;19969;-69
2022/11/23 08:23:17;;;;;;;;;;;9.90;99.90;;;;;;5100197;28;19939;-69
2022/11/23 08:25:43;;;;;;;;;;;10.10;99.90;;;;;;5073037;28;19912;-70
2022/11/23 08:28:08;;;;;;;;;;;10.10;99.90;;;;;;5104794;28;19916;-69
2022/11/23 08:30:34;;;;;;;;;;;10.20;99.90;;;;;;5104559;28;19912;-69
2022/11/23 08:33:04;;;;;;;;;;;10.30;99.90;;;;;;5105788;28;20054;-69
2022/11/23 08:35:29;;;;;;;;;;;10.40;99.90;;;;;;5099395;28;19968;-69
2022/11/23 08:37:55;;;;;;;;;;;10.50;99.90;;;;;;5104709;28;20258;-70
2022/11/23 08:40:20;;;;;;;;;;;10.50;99.90;;;;;;5118097;27;19960;-69
2022/11/23 08:42:46;;;;;;;;;;;10.50;99.90;;;;;;5094638;28;19908;-68
2022/11/23 08:45:12;;;;;;;;;;;10.40;99.90;;;;;;5093576;28;19909;-73
2022/11/23 08:47:37;;;;;;;;;;;10.40;99.90;;;;;;5102627;28;19919;-71
2022/11/23 08:50:03;;;;;;;;;;;10.50;99.90;;;;;;5074645;28;19909;-70
2022/11/23 08:52:29;;;;;;;;;;;10.60;99.90;;;;;;5069362;28;19942;-67
2022/11/23 08:54:55;;;;;;;;;;;10.60;99.90;;;;;;5093910;28;20003;-69
2022/11/23 08:57:21;;;;;;;;;;;10.70;99.90;;;;;;5077416;28;19935;-68
2022/11/23 08:59:46;;;;;;;;;;;10.70;99.90;;;;;;5078137;28;19913;-68
2022/11/23 09:02:12;;;;;;;;;;;10.70;99.90;;;;;;5079771;28;19912;-68
2022/11/23 09:04:38;;;;;;;;;;;10.70;99.90;;;;;;5105397;28;19923;-68
2022/11/23 09:07:04;;;;;;;;;;;10.70;99.90;;;;;;5104570;28;19982;-68
2022/11/23 09:09:30;;;;;;;;;;;10.60;99.90;;;;;;5080894;28;19952;-66
2022/11/23 09:11:55;;;;;;;;;;;10.60;99.90;;;;;;5076608;28;19916;-67
2022/11/23 09:14:22;;;;;;;;;;;10.50;99.90;;;;;;5081771;28;19908;-66
2022/11/23 09:16:47;;;;;;;;;;;10.40;99.90;;;;;;5097762;28;19912;-69
2022/11/23 09:19:13;;;;;;;;;;;10.40;99.90;;;;;;5081195;28;20891;-69
2022/11/23 09:21:41;;;;;;;;;;;10.40;99.90;;;;;;5081140;28;19915;-68
2022/11/23 09:24:07;;;;;;;;;;;10.40;99.90;;;;;;5091101;28;19916;-68
2022/11/23 09:26:33;;;;;;;;;;;10.40;99.90;;;;;;5094224;28;19912;-67
2022/11/23 09:28:59;;;;;;;;;;;10.40;99.90;;;;;;5096728;28;19921;-69
2022/11/23 09:31:27;;;;;;;;;;;10.50;99.90;;;;;;5077319;28;20357;-69
2022/11/23 09:33:53;;;;;;;;;;;10.60;99.90;;;;;;5106094;28;20005;-69
2022/11/23 09:36:19;;;;;;;;;;;10.80;99.90;;;;;;5096232;28;19916;-69
2022/11/23 09:38:44;;;;;;;;;;;10.80;99.90;;;;;;5083705;28;20007;-69
2022/11/23 09:41:35;;;;;;;;;;;10.90;99.90;;;;;;5078139;28;20012;-69
2022/11/23 09:44:06;;;;;;;;;;;10.90;99.90;;;;;;5094368;28;19908;-69
2022/11/23 09:46:41;;;;;;;;;;;11.00;99.90;;;;;;5092586;28;19920;-69
2022/11/23 09:49:10;;;;;;;;;;;11.00;99.90;;;;;;5095938;28;19918;-69
2022/11/23 09:51:37;;;;;;;;;;;11.00;99.90;;;;;;5079559;28;19919;-69
2022/11/23 09:54:21;;;;;;;;;;;11.00;99.90;;;;;;5114518;28;19912;-69
2022/11/23 09:56:49;;;;;;;;;;;11.00;99.90;;;;;;5101387;28;19988;-69
2022/11/23 09:59:24;;;;;;;;;;;11.10;99.90;;;;;;5100608;28;19911;-70
2022/11/23 10:01:50;;;;;;;;;;;11.10;99.90;;;;;;5118849;28;19913;-69
2022/11/23 10:04:17;;;;;;;;;;;11.20;99.90;;;;;;5109650;28;19975;-68
2022/11/23 10:06:43;;;;;;;;;;;11.20;99.90;;;;;;5103724;28;19908;-69
2022/11/23 10:09:35;;;;;;;;;;;11.10;99.90;;;;;;5092671;28;19974;-69
2022/11/23 10:12:22;;;;;;;;;;;11.20;99.90;;;;;;5090054;28;19944;-69
2022/11/23 10:15:07;;;;;;;;;;;11.20;99.90;;;;;;5106077;28;19958;-69
2022/11/23 10:17:51;;;;;;;;;;;11.30;99.90;;;;;;5105864;28;19908;-69
2022/11/23 10:20:26;;;;;;;;;;;11.20;99.90;;;;;;5114908;28;19934;-69
2022/11/23 10:23:01;;;;;;;;;;;11.10;99.90;;;;;;5107573;28;19908;-69
2022/11/23 10:25:36;;;;;;;;;;;11.20;99.90;;;;;;5103882;28;19940;-69
2022/11/23 10:28:10;;;;;;;;;;;11.20;99.90;;;;;;5103876;28;19914;-69
2022/11/23 10:30:36;;;;;;;;;;;11.20;99.90;;;;;;5091232;28;20035;-69
2022/11/23 10:33:22;;;;;;;;;;;11.20;99.90;;;;;;5113338;28;19983;-68
2022/11/23 10:35:48;;;;;;;;;;;11.20;99.90;;;;;;5118026;28;19946;-68
2022/11/23 10:38:14;;;;;;;;;;;11.10;99.90;;;;;;5104189;28;19987;-66
2022/11/23 10:40:45;;;;;;;;;;;11.20;99.90;;;;;;5110692;28;19912;-67
2022/11/23 10:43:34;;;;;;;;;;;11.30;99.90;;;;;;5088800;28;19990;-68
2022/11/23 10:46:18;;;;;;;;;;;11.20;99.90;;;;;;5095034;28;19968;-69
2022/11/23 10:48:46;;;;;;;;;;;11.30;99.90;;;;;;5087759;28;20007;-68
2022/11/23 10:51:29;;;;;;;;;;;11.30;99.90;;;;;;5083740;28;19920;-69
2022/11/23 10:53:57;;;;;;;;;;;11.30;99.90;;;;;;5110230;28;19947;-68
2022/11/23 10:56:24;;;;;;;;;;;11.30;99.90;;;;;;5092942;28;20007;-68
2022/11/23 10:58:49;;;;;;;;;;;11.30;99.90;;;;;;5101728;28;19916;-68
2022/11/23 11:01:18;;;;;;;;;;;11.20;99.90;;;;;;5085101;28;19921;-68
2022/11/23 11:03:43;;;;;;;;;;;11.30;99.90;;;;;;5106343;28;19952;-68
2022/11/23 11:06:09;;;;;;;;;;;11.40;99.90;;;;;;5108643;28;19920;-68
2022/11/23 11:08:36;;;;;;;;;;;11.40;99.90;;;;;;5103193;28;19919;-68
2022/11/23 11:11:05;;;;;;;;;;;11.50;99.90;;;;;;5101432;28;20046;-68
2022/11/23 11:13:37;;;;;;;;;;;11.50;99.90;;;;;;5097354;28;19919;-68
2022/11/23 11:16:04;;;;;;;;;;;11.60;99.90;;;;;;5100608;27;19975;-68
2022/11/23 11:18:31;;;;;;;;;;;11.50;99.90;;;;;;5105791;28;19916;-68
2022/11/23 11:21:16;;;;;;;;;;;11.40;99.90;;;;;;5109266;28;20410;-68
2022/11/23 11:23:45;;;;;;;;;;;11.30;99.90;;;;;;5104312;28;19934;-68
2022/11/23 11:26:21;;;;;;;;;;;11.20;99.90;;;;;;5098280;28;19934;-68
2022/11/23 11:28:52;;;;;;;;;;;11.20;99.90;;;;;;5097297;28;19919;-69
2022/11/23 11:31:20;;;;;;;;;;;11.40;99.90;;;;;;5080357;28;19947;-70
2022/11/23 11:33:49;;;;;;;;;;;11.50;99.90;;;;;;5085361;28;19977;-69
2022/11/23 11:36:15;;;;;;;;;;;11.50;99.90;;;;;;5108438;28;19935;-69
2022/11/23 11:38:44;;;;;;;;;;;11.50;99.90;;;;;;5100474;28;19916;-70
2022/11/23 11:41:11;;;;;;;;;;;11.60;99.90;;;;;;5094104;28;19908;-69
2022/11/23 11:43:43;;;;;;;;;;;11.60;99.90;;;;;;5116898;27;20377;-70
2022/11/23 11:46:12;;;;;;;;;;;11.60;99.90;;;;;;5095486;28;19951;-69
2022/11/23 11:48:40;;;;;;;;;;;11.50;99.90;;;;;;5094956;28;19915;-69
2022/11/23 11:51:09;;;;;;;;;;;11.50;99.90;;;;;;5094897;28;19912;-70
2022/11/23 11:53:39;;;;;;;;;;;11.50;99.90;;;;;;5094500;28;20058;-70
2022/11/23 11:56:10;;;;;;;;;;;11.50;99.90;;;;;;5094397;28;19915;-70
2022/11/23 11:58:36;;;;;;;;;;;11.60;99.90;;;;;;5082396;28;20064;-70
2022/11/23 12:01:27;;;;;;;;;;;11.60;99.90;;;;;;5108751;28;19955;-70
2022/11/23 12:03:58;;;;;;;;;;;11.60;99.90;;;;;;5115239;28;19907;-70
2022/11/23 12:06:28;;;;;;;;;;;11.60;99.90;;;;;;5096347;28;20313;-70
2022/11/23 12:09:10;;;;;;;;;;;11.70;99.90;;;;;;5114761;28;19914;-70
2022/11/23 12:11:36;;;;;;;;;;;11.70;99.90;;;;;;5092541;28;19911;-69
2022/11/23 12:14:03;;;;;;;;;;;11.80;99.90;;;;;;5097743;28;19912;-69
2022/11/23 12:16:41;;;;;;;;;;;11.80;99.90;;;;;;5101594;28;19998;-70
2022/11/23 12:19:25;;;;;;;;;;;11.90;99.90;;;;;;5094521;28;19912;-69
2022/11/23 12:21:57;;;;;;;;;;;11.90;99.90;;;;;;5109921;28;19912;-69
2022/11/23 12:24:31;;;;;;;;;;;11.90;99.90;;;;;;5094087;28;19914;-70
2022/11/23 12:27:16;;;;;;;;;;;11.90;99.90;;;;;;5075627;28;19908;-69
2022/11/23 12:29:41;;;;;;;;;;;11.90;99.90;;;;;;5096594;28;19915;-68
2022/11/23 12:32:21;;;;;;;;;;;11.90;99.90;;;;;;5088181;28;19916;-68
2022/11/23 12:34:46;;;;;;;;;;;11.90;99.90;;;;;;5097269;28;19924;-68
2022/11/23 12:37:21;;;;;;;;;;;11.90;99.90;;;;;;5112788;28;19912;-68
2022/11/23 12:39:53;;;;;;;;;;;11.90;99.90;;;;;;5098094;28;19908;-66
2022/11/23 12:42:19;;;;;;;;;;;12.00;99.90;;;;;;5114800;28;20008;-68
2022/11/23 12:44:49;;;;;;;;;;;12.00;99.90;;;;;;5089192;28;19908;-67
2022/11/23 12:47:24;;;;;;;;;;;12.00;99.90;;;;;;5085575;28;19912;-70
2022/11/23 12:49:52;;;;;;;;;;;12.10;99.90;;;;;;5101107;28;19943;-68
2022/11/23 12:52:36;;;;;;;;;;;12.10;99.90;;;;;;5107161;28;19915;-69
2022/11/23 12:55:01;;;;;;;;;;;12.00;99.90;;;;;;5105760;28;19908;-69
2022/11/23 12:57:33;;;;;;;;;;;12.00;99.90;;;;;;5105223;28;19912;-69
2022/11/23 13:00:02;;;;;;;;;;;12.00;99.90;;;;;;5084972;28;19951;-69
2022/11/23 13:02:36;;;;;;;;;;;12.10;99.90;;;;;;5110504;28;19951;-69
2022/11/23 13:05:11;;;;;;;;;;;11.90;99.90;;;;;;5116089;27;19919;-69
2022/11/23 13:07:43;;;;;;;;;;;12.00;99.90;;;;;;5101530;28;19972;-69
2022/11/23 13:10:18;;;;;;;;;;;11.90;99.90;;;;;;5101572;28;19966;-69
2022/11/23 13:12:47;;;;;;;;;;;11.90;99.90;;;;;;5103921;28;19918;-70
2022/11/23 13:15:33;;;;;;;;;;;12.00;99.90;;;;;;5104386;28;20109;-70
2022/11/23 13:18:16;;;;;;;;;;;12.00;99.90;;;;;;5109016;28;19923;-70
2022/11/23 13:20:59;;;;;;;;;;;12.00;99.90;;;;;;5116520;27;19912;-69
2022/11/23 13:23:25;;;;;;;;;;;12.00;99.90;;;;;;5085388;28;19912;-69
2022/11/23 13:26:09;;;;;;;;;;;12.00;99.90;;;;;;5100732;28;19919;-70
2022/11/23 13:28:35;;;;;;;;;;;12.00;99.90;;;;;;5089369;28;19927;-69
2022/11/23 13:31:16;;;;;;;;;;;12.00;99.90;;;;;;5108140;28;19916;-69
2022/11/23 13:33:43;;;;;;;;;;;12.00;99.90;;;;;;5087312;28;19963;-69
2022/11/23 13:36:10;;;;;;;;;;;12.00;99.90;;;;;;5084506;28;19916;-68
2022/11/23 13:38:39;;;;;;;;;;;12.00;99.90;;;;;;5102935;28;19922;-69
2022/11/23 13:41:24;;;;;;;;;;;12.00;99.90;;;;;;5097222;28;19911;-69
2022/11/23 13:43:50;;;;;;;;;;;12.00;99.90;;;;;;5102102;28;19908;-69
2022/11/23 13:46:19;;;;;;;;;;;12.00;99.90;;;;;;5088745;28;19981;-70
2022/11/23 13:48:49;;;;;;;;;;;12.00;99.90;;;;;;5103960;28;19961;-68
2022/11/23 13:51:23;;;;;;;;;;;12.00;99.90;;;;;;5091077;28;19915;-70
2022/11/23 13:53:54;;;;;;;;;;;12.10;99.90;;;;;;5104823;28;19924;-70
2022/11/23 13:56:28;;;;;;;;;;;12.10;99.90;;;;;;5117058;27;19917;-69
2022/11/23 13:58:58;;;;;;;;;;;12.20;99.90;;;;;;5114261;28;19966;-70
2022/11/23 14:01:43;;;;;;;;;;;12.20;99.90;;;;;;5093895;28;20495;-69
2022/11/23 14:04:19;;;;;;;;;;;12.20;99.90;;;;;;5104369;28;20011;-70
2022/11/23 14:06:46;;;;;;;;;;;12.20;99.90;;;;;;5111324;28;19918;-70
2022/11/23 14:09:11;;;;;;;;;;;12.30;99.90;;;;;;5094360;28;19918;-69
2022/11/23 14:11:56;;;;;;;;;;;12.30;99.90;;;;;;5111016;28;19920;-69
2022/11/23 14:14:23;;;;;;;;;;;12.40;99.90;;;;;;5079296;28;19908;-70
2022/11/23 14:17:04;;;;;;;;;;;12.50;99.90;;;;;;5117581;28;20566;-70
2022/11/23 14:19:32;;;;;;;;;;;12.60;99.90;;;;;;5108177;28;19916;-69
2022/11/23 14:22:16;;;;;;;;;;;12.50;99.90;;;;;;5113487;28;19912;-72
2022/11/23 14:25:03;;;;;;;;;;;12.70;99.90;;;;;;5104226;28;19908;-70
2022/11/23 14:27:39;;;;;;;;;;;12.70;99.90;;;;;;5099686;28;19978;-70
2022/11/23 14:30:20;;;;;;;;;;;12.80;99.90;;;;;;5122869;27;19912;-69
2022/11/23 14:32:46;;;;;;;;;;;12.80;99.90;;;;;;5113156;28;20102;-70